sensor_id;sensor_type;location;lat;lon;timestamp;P1;durP1;ratioP1;P2;durP2;ratioP2
15506;SDS011;7855;52.210;5.982;2022-09-04T00:02:39;8;;;5;;
15506;SDS011;7855;52.210;5.982;2022-09-04T00:02:56;11;;;4;;
15506;SDS011;7855;52.210;5.982;2022-09-04T00:05:07;7;;;5;;
15506;SDS011;7855;52.210;5.982;2022-09-04T00:07:22;9;;;4;;
15506;SDS011;7855;52.210;5.982;2022-09-04T00:09:36;7;;;4;;
15506;SDS011;7855;52.210;5.982;2022-09-04T00:11:51;7;;;4;;
15506;SDS011;7855;52.210;5.982;2022-09-04T00:14:04;11;;;4;;
15506;SDS011;7855;52.210;5.982;2022-09-04T00:16:19;11;;;6;;
15506;SDS011;7855;52.210;5.982;2022-09-04T00:18:33;7;;;4;;
15506;SDS011;7855;52.210;5.982;2022-09-04T00:20:49;7;;;5;;
15506;SDS011;7855;52.210;5.982;2022-09-04T00:23:05;7;;;5;;
15506;SDS011;7855;52.210;5.982;2022-09-04T00:25:17;14;;;5;;
15506;SDS011;7855;52.210;5.982;2022-09-04T00:27:31;10;;;4;;
15506;SDS011;7855;52.210;5.982;2022-09-04T00:29:46;7;;;4;;
15506;SDS011;7855;52.210;5.982;2022-09-04T00:32:00;11;;;5;;
15506;SDS011;7855;52.210;5.982;2022-09-04T00:34:16;16;;;6;;
15506;SDS011;7855;52.210;5.982;2022-09-04T00:36:28;6;;;4;;
15506;SDS011;7855;52.210;5.982;2022-09-04T00:38:44;7;;;4;;
15506;SDS011;7855;52.210;5.982;2022-09-04T00:41:00;6;;;4;;
15506;SDS011;7855;52.210;5.982;2022-09-04T00:43:17;9;;;4;;
15506;SDS011;7855;52.210;5.982;2022-09-04T00:45:30;8;;;5;;
15506;SDS011;7855;52.210;5.982;2022-09-04T00:47:46;11;;;4;;
15506;SDS011;7855;52.210;5.982;2022-09-04T00:49:58;11;;;4;;
15506;SDS011;7855;52.210;5.982;2022-09-04T00:52:12;9;;;5;;
15506;SDS011;7855;52.210;5.982;2022-09-04T00:54:42;8;;;5;;
15506;SDS011;7855;52.210;5.982;2022-09-04T00:56:44;9;;;5;;
15506;SDS011;7855;52.210;5.982;2022-09-04T00:58:55;12;;;4;;
15506;SDS011;7855;52.210;5.982;2022-09-04T01:01:07;7;;;4;;
15506;SDS011;7855;52.210;5.982;2022-09-04T01:03:27;8;;;5;;
15506;SDS011;7855;52.210;5.982;2022-09-04T01:05:38;12;;;4;;
15506;SDS011;7855;52.210;5.982;2022-09-04T01:07:53;16;;;6;;
15506;SDS011;7855;52.210;5.982;2022-09-04T01:10:23;16;;;5;;
15506;SDS011;7855;52.210;5.982;2022-09-04T01:12:23;12;;;5;;
15506;SDS011;7855;52.210;5.982;2022-09-04T01:14:36;7;;;5;;
15506;SDS011;7855;52.210;5.982;2022-09-04T01:16:50;8;;;5;;
15506;SDS011;7855;52.210;5.982;2022-09-04T01:19:03;9;;;6;;
15506;SDS011;7855;52.210;5.982;2022-09-04T01:21:22;13;;;5;;
15506;SDS011;7855;52.210;5.982;2022-09-04T01:23:35;10;;;5;;
15506;SDS011;7855;52.210;5.982;2022-09-04T01:25:49;9;;;5;;
15506;SDS011;7855;52.210;5.982;2022-09-04T01:28:01;9;;;5;;
15506;SDS011;7855;52.210;5.982;2022-09-04T01:30:15;11;;;5;;
15506;SDS011;7855;52.210;5.982;2022-09-04T01:32:31;8;;;4;;
15506;SDS011;7855;52.210;5.982;2022-09-04T01:34:44;6;;;4;;
15506;SDS011;7855;52.210;5.982;2022-09-04T01:36:59;13;;;5;;
15506;SDS011;7855;52.210;5.982;2022-09-04T01:39:12;8;;;5;;
15506;SDS011;7855;52.210;5.982;2022-09-04T01:41:27;7;;;5;;
15506;SDS011;7855;52.210;5.982;2022-09-04T01:43:41;8;;;5;;
15506;SDS011;7855;52.210;5.982;2022-09-04T01:45:59;11;;;5;;
15506;SDS011;7855;52.210;5.982;2022-09-04T01:48:10;10;;;5;;
15506;SDS011;7855;52.210;5.982;2022-09-04T01:50:25;8;;;5;;
15506;SDS011;7855;52.210;5.982;2022-09-04T01:52:40;8;;;4;;
15506;SDS011;7855;52.210;5.982;2022-09-04T01:54:55;9;;;4;;
15506;SDS011;7855;52.210;5.982;2022-09-04T01:57:09;9;;;5;;
15506;SDS011;7855;52.210;5.982;2022-09-04T01:59:24;13;;;6;;
15506;SDS011;7855;52.210;5.982;2022-09-04T02:01:37;9;;;6;;
15506;SDS011;7855;52.210;5.982;2022-09-04T02:03:53;8;;;4;;
15506;SDS011;7855;52.210;5.982;2022-09-04T02:06:07;9;;;5;;
15506;SDS011;7855;52.210;5.982;2022-09-04T02:08:24;11;;;5;;
15506;SDS011;7855;52.210;5.982;2022-09-04T02:10:36;8;;;4;;
15506;SDS011;7855;52.210;5.982;2022-09-04T02:12:50;8;;;5;;
15506;SDS011;7855;52.210;5.982;2022-09-04T02:15:05;9;;;5;;
15506;SDS011;7855;52.210;5.982;2022-09-04T02:17:19;13;;;5;;
15506;SDS011;7855;52.210;5.982;2022-09-04T02:19:35;12;;;5;;
15506;SDS011;7855;52.210;5.982;2022-09-04T02:21:47;9;;;5;;
15506;SDS011;7855;52.210;5.982;2022-09-04T02:24:03;10;;;4;;
15506;SDS011;7855;52.210;5.982;2022-09-04T02:26:16;12;;;5;;
15506;SDS011;7855;52.210;5.982;2022-09-04T02:28:32;23;;;6;;
15506;SDS011;7855;52.210;5.982;2022-09-04T02:30:46;10;;;5;;
15506;SDS011;7855;52.210;5.982;2022-09-04T02:33:01;13;;;6;;
15506;SDS011;7855;52.210;5.982;2022-09-04T02:35:15;10;;;5;;
15506;SDS011;7855;52.210;5.982;2022-09-04T02:37:29;10;;;6;;
15506;SDS011;7855;52.210;5.982;2022-09-04T02:39:44;15;;;7;;
15506;SDS011;7855;52.210;5.982;2022-09-04T02:41:58;200;;;18;;
15506;SDS011;7855;52.210;5.982;2022-09-04T02:44:14;10;;;6;;
15506;SDS011;7855;52.210;5.982;2022-09-04T02:46:26;11;;;5;;
15506;SDS011;7855;52.210;5.982;2022-09-04T02:48:44;11;;;7;;
15506;SDS011;7855;52.210;5.982;2022-09-04T02:50:58;10;;;6;;
15506;SDS011;7855;52.210;5.982;2022-09-04T02:53:10;13;;;5;;
15506;SDS011;7855;52.210;5.982;2022-09-04T02:55:26;8;;;4;;
15506;SDS011;7855;52.210;5.982;2022-09-04T02:57:40;19;;;6;;
15506;SDS011;7855;52.210;5.982;2022-09-04T02:59:54;12;;;6;;
15506;SDS011;7855;52.210;5.982;2022-09-04T03:02:07;9;;;6;;
15506;SDS011;7855;52.210;5.982;2022-09-04T03:04:22;11;;;6;;
15506;SDS011;7855;52.210;5.982;2022-09-04T03:06:41;9;;;6;;
15506;SDS011;7855;52.210;5.982;2022-09-04T03:08:51;10;;;6;;
15506;SDS011;7855;52.210;5.982;2022-09-04T03:11:05;10;;;5;;
15506;SDS011;7855;52.210;5.982;2022-09-04T03:13:19;10;;;6;;
15506;SDS011;7855;52.210;5.982;2022-09-04T03:15:35;10;;;6;;
15506;SDS011;7855;52.210;5.982;2022-09-04T03:17:50;19;;;6;;
15506;SDS011;7855;52.210;5.982;2022-09-04T03:20:07;17;;;7;;
15506;SDS011;7855;52.210;5.982;2022-09-04T03:22:18;11;;;6;;
15506;SDS011;7855;52.210;5.982;2022-09-04T03:24:32;10;;;6;;
15506;SDS011;7855;52.210;5.982;2022-09-04T03:26:46;10;;;6;;
15506;SDS011;7855;52.210;5.982;2022-09-04T03:29:02;12;;;7;;
15506;SDS011;7855;52.210;5.982;2022-09-04T03:31:17;11;;;6;;
15506;SDS011;7855;52.210;5.982;2022-09-04T03:35:46;10;;;6;;
15506;SDS011;7855;52.210;5.982;2022-09-04T03:38:01;12;;;6;;
15506;SDS011;7855;52.210;5.982;2022-09-04T03:40:17;13;;;7;;
15506;SDS011;7855;52.210;5.982;2022-09-04T03:42:27;39;;;8;;
15506;SDS011;7855;52.210;5.982;2022-09-04T03:44:42;25;;;8;;
15506;SDS011;7855;52.210;5.982;2022-09-04T03:46:56;11;;;6;;
15506;SDS011;7855;52.210;5.982;2022-09-04T03:49:11;9;;;6;;
15506;SDS011;7855;52.210;5.982;2022-09-04T03:51:27;11;;;6;;
15506;SDS011;7855;52.210;5.982;2022-09-04T03:53:39;14;;;7;;
15506;SDS011;7855;52.210;5.982;2022-09-04T03:56:00;11;;;6;;
15506;SDS011;7855;52.210;5.982;2022-09-04T03:58:09;11;;;6;;
15506;SDS011;7855;52.210;5.982;2022-09-04T04:00:21;10;;;5;;
15506;SDS011;7855;52.210;5.982;2022-09-04T04:02:39;14;;;8;;
15506;SDS011;7855;52.210;5.982;2022-09-04T04:04:53;9;;;6;;
15506;SDS011;7855;52.210;5.982;2022-09-04T04:07:05;12;;;7;;
15506;SDS011;7855;52.210;5.982;2022-09-04T04:09:23;10;;;7;;
15506;SDS011;7855;52.210;5.982;2022-09-04T04:11:37;10;;;7;;
15506;SDS011;7855;52.210;5.982;2022-09-04T04:13:53;12;;;8;;
15506;SDS011;7855;52.210;5.982;2022-09-04T04:16:07;12;;;7;;
15506;SDS011;7855;52.210;5.982;2022-09-04T04:18:23;16;;;8;;
15506;SDS011;7855;52.210;5.982;2022-09-04T04:20:33;11;;;7;;
15506;SDS011;7855;52.210;5.982;2022-09-04T04:22:49;17;;;7;;
15506;SDS011;7855;52.210;5.982;2022-09-04T04:25:02;11;;;7;;
15506;SDS011;7855;52.210;5.982;2022-09-04T04:27:19;12;;;7;;
15506;SDS011;7855;52.210;5.982;2022-09-04T04:29:34;11;;;6;;
15506;SDS011;7855;52.210;5.982;2022-09-04T04:31:47;10;;;6;;
15506;SDS011;7855;52.210;5.982;2022-09-04T04:33:58;9;;;6;;
15506;SDS011;7855;52.210;5.982;2022-09-04T04:36:15;13;;;8;;
15506;SDS011;7855;52.210;5.982;2022-09-04T04:38:30;13;;;7;;
15506;SDS011;7855;52.210;5.982;2022-09-04T04:40:47;13;;;8;;
15506;SDS011;7855;52.210;5.982;2022-09-04T04:42:56;11;;;7;;
15506;SDS011;7855;52.210;5.982;2022-09-04T04:45:10;11;;;7;;
15506;SDS011;7855;52.210;5.982;2022-09-04T04:47:26;13;;;8;;
15506;SDS011;7855;52.210;5.982;2022-09-04T04:49:43;13;;;7;;
15506;SDS011;7855;52.210;5.982;2022-09-04T04:51:58;11;;;7;;
15506;SDS011;7855;52.210;5.982;2022-09-04T04:54:12;14;;;9;;
15506;SDS011;7855;52.210;5.982;2022-09-04T04:56:22;12;;;7;;
15506;SDS011;7855;52.210;5.982;2022-09-04T04:58:40;17;;;9;;
15506;SDS011;7855;52.210;5.982;2022-09-04T05:00:52;12;;;8;;
15506;SDS011;7855;52.210;5.982;2022-09-04T05:03:06;12;;;8;;
15506;SDS011;7855;52.210;5.982;2022-09-04T05:05:20;11;;;8;;
15506;SDS011;7855;52.210;5.982;2022-09-04T05:07:34;15;;;8;;
15506;SDS011;7855;52.210;5.982;2022-09-04T05:09:50;11;;;7;;
15506;SDS011;7855;52.210;5.982;2022-09-04T05:12:05;12;;;8;;
15506;SDS011;7855;52.210;5.982;2022-09-04T05:14:23;13;;;9;;
15506;SDS011;7855;52.210;5.982;2022-09-04T05:16:33;16;;;9;;
15506;SDS011;7855;52.210;5.982;2022-09-04T05:18:48;13;;;7;;
15506;SDS011;7855;52.210;5.982;2022-09-04T05:21:04;13;;;8;;
15506;SDS011;7855;52.210;5.982;2022-09-04T05:23:17;14;;;8;;
15506;SDS011;7855;52.210;5.982;2022-09-04T05:25:32;13;;;9;;
15506;SDS011;7855;52.210;5.982;2022-09-04T05:27:47;17;;;9;;
15506;SDS011;7855;52.210;5.982;2022-09-04T05:30:00;11;;;8;;
15506;SDS011;7855;52.210;5.982;2022-09-04T05:32:15;13;;;8;;
15506;SDS011;7855;52.210;5.982;2022-09-04T05:34:28;13;;;8;;
15506;SDS011;7855;52.210;5.982;2022-09-04T05:36:44;18;;;8;;
15506;SDS011;7855;52.210;5.982;2022-09-04T05:38:57;13;;;9;;
15506;SDS011;7855;52.210;5.982;2022-09-04T05:41:12;19;;;9;;
15506;SDS011;7855;52.210;5.982;2022-09-04T05:43:28;12;;;8;;
15506;SDS011;7855;52.210;5.982;2022-09-04T05:45:45;13;;;8;;
15506;SDS011;7855;52.210;5.982;2022-09-04T05:47:57;14;;;9;;
15506;SDS011;7855;52.210;5.982;2022-09-04T05:50:13;14;;;9;;
15506;SDS011;7855;52.210;5.982;2022-09-04T05:52:26;12;;;8;;
15506;SDS011;7855;52.210;5.982;2022-09-04T05:54:43;11;;;7;;
15506;SDS011;7855;52.210;5.982;2022-09-04T05:56:55;16;;;9;;
15506;SDS011;7855;52.210;5.982;2022-09-04T05:59:13;12;;;7;;
15506;SDS011;7855;52.210;5.982;2022-09-04T06:01:25;13;;;8;;
15506;SDS011;7855;52.210;5.982;2022-09-04T06:03:39;12;;;9;;
15506;SDS011;7855;52.210;5.982;2022-09-04T06:05:52;13;;;8;;
15506;SDS011;7855;52.210;5.982;2022-09-04T06:08:06;17;;;8;;
15506;SDS011;7855;52.210;5.982;2022-09-04T06:10:19;13;;;8;;
15506;SDS011;7855;52.210;5.982;2022-09-04T06:12:38;19;;;8;;
15506;SDS011;7855;52.210;5.982;2022-09-04T06:14:51;11;;;7;;
15506;SDS011;7855;52.210;5.982;2022-09-04T06:17:06;21;;;9;;
15506;SDS011;7855;52.210;5.982;2022-09-04T06:19:18;14;;;10;;
15506;SDS011;7855;52.210;5.982;2022-09-04T06:24:03;13;;;9;;
15506;SDS011;7855;52.210;5.982;2022-09-04T06:26:02;15;;;9;;
15506;SDS011;7855;52.210;5.982;2022-09-04T06:28:17;22;;;10;;
15506;SDS011;7855;52.210;5.982;2022-09-04T06:30:29;24;;;9;;
15506;SDS011;7855;52.210;5.982;2022-09-04T06:32:46;12;;;8;;
15506;SDS011;7855;52.210;5.982;2022-09-04T06:34:59;12;;;8;;
15506;SDS011;7855;52.210;5.982;2022-09-04T06:37:13;13;;;8;;
15506;SDS011;7855;52.210;5.982;2022-09-04T06:39:29;19;;;9;;
15506;SDS011;7855;52.210;5.982;2022-09-04T06:41:43;15;;;9;;
15506;SDS011;7855;52.210;5.982;2022-09-04T06:43:56;90;;;25;;
15506;SDS011;7855;52.210;5.982;2022-09-04T06:46:13;16;;;9;;
15506;SDS011;7855;52.210;5.982;2022-09-04T06:48:26;19;;;11;;
15506;SDS011;7855;52.210;5.982;2022-09-04T06:50:41;13;;;8;;
15506;SDS011;7855;52.210;5.982;2022-09-04T06:52:56;15;;;9;;
15506;SDS011;7855;52.210;5.982;2022-09-04T06:55:08;13;;;8;;
15506;SDS011;7855;52.210;5.982;2022-09-04T06:57:38;14;;;9;;
15506;SDS011;7855;52.210;5.982;2022-09-04T06:59:39;15;;;10;;
15506;SDS011;7855;52.210;5.982;2022-09-04T07:01:53;18;;;12;;
15506;SDS011;7855;52.210;5.982;2022-09-04T07:04:06;16;;;10;;
15506;SDS011;7855;52.210;5.982;2022-09-04T07:06:20;16;;;10;;
15506;SDS011;7855;52.210;5.982;2022-09-04T07:08:37;15;;;10;;
15506;SDS011;7855;52.210;5.982;2022-09-04T07:10:50;17;;;10;;
15506;SDS011;7855;52.210;5.982;2022-09-04T07:13:13;17;;;9;;
15506;SDS011;7855;52.210;5.982;2022-09-04T07:15:22;17;;;10;;
15506;SDS011;7855;52.210;5.982;2022-09-04T07:17:32;14;;;10;;
15506;SDS011;7855;52.210;5.982;2022-09-04T07:19:51;23;;;11;;
15506;SDS011;7855;52.210;5.982;2022-09-04T07:22:05;43;;;14;;
15506;SDS011;7855;52.210;5.982;2022-09-04T07:24:29;159;;;18;;
15506;SDS011;7855;52.210;5.982;2022-09-04T07:26:30;62;;;13;;
15506;SDS011;7855;52.210;5.982;2022-09-04T07:28:49;21;;;11;;
15506;SDS011;7855;52.210;5.982;2022-09-04T07:30:59;17;;;9;;
15506;SDS011;7855;52.210;5.982;2022-09-04T07:33:14;18;;;9;;
15506;SDS011;7855;52.210;5.982;2022-09-04T07:35:28;16;;;8;;
15506;SDS011;7855;52.210;5.982;2022-09-04T07:37:42;10;;;7;;
15506;SDS011;7855;52.210;5.982;2022-09-04T07:39:58;12;;;8;;
15506;SDS011;7855;52.210;5.982;2022-09-04T07:42:10;12;;;8;;
15506;SDS011;7855;52.210;5.982;2022-09-04T07:44:25;12;;;8;;
15506;SDS011;7855;52.210;5.982;2022-09-04T07:46:40;13;;;8;;
15506;SDS011;7855;52.210;5.982;2022-09-04T07:48:53;12;;;8;;
15506;SDS011;7855;52.210;5.982;2022-09-04T07:51:09;15;;;7;;
15506;SDS011;7855;52.210;5.982;2022-09-04T07:53:24;12;;;7;;
15506;SDS011;7855;52.210;5.982;2022-09-04T07:55:37;15;;;7;;
15506;SDS011;7855;52.210;5.982;2022-09-04T07:57:55;11;;;7;;
15506;SDS011;7855;52.210;5.982;2022-09-04T08:00:07;17;;;7;;
15506;SDS011;7855;52.210;5.982;2022-09-04T08:02:24;12;;;8;;
15506;SDS011;7855;52.210;5.982;2022-09-04T08:04:45;12;;;7;;
15506;SDS011;7855;52.210;5.982;2022-09-04T08:06:49;18;;;7;;
15506;SDS011;7855;52.210;5.982;2022-09-04T08:09:08;13;;;8;;
15506;SDS011;7855;52.210;5.982;2022-09-04T08:13:37;16;;;9;;
15506;SDS011;7855;52.210;5.982;2022-09-04T08:15:48;12;;;7;;
15506;SDS011;7855;52.210;5.982;2022-09-04T08:18:07;14;;;8;;
15506;SDS011;7855;52.210;5.982;2022-09-04T08:20:19;11;;;7;;
15506;SDS011;7855;52.210;5.982;2022-09-04T08:22:32;15;;;8;;
15506;SDS011;7855;52.210;5.982;2022-09-04T08:24:48;15;;;7;;
15506;SDS011;7855;52.210;5.982;2022-09-04T08:27:02;11;;;7;;
15506;SDS011;7855;52.210;5.982;2022-09-04T08:29:17;10;;;7;;
15506;SDS011;7855;52.210;5.982;2022-09-04T08:31:28;14;;;8;;
15506;SDS011;7855;52.210;5.982;2022-09-04T08:33:48;10;;;6;;
15506;SDS011;7855;52.210;5.982;2022-09-04T08:35:57;12;;;7;;
15506;SDS011;7855;52.210;5.982;2022-09-04T08:38:16;14;;;7;;
15506;SDS011;7855;52.210;5.982;2022-09-04T08:40:31;12;;;7;;
15506;SDS011;7855;52.210;5.982;2022-09-04T08:42:45;11;;;6;;
15506;SDS011;7855;52.210;5.982;2022-09-04T08:49:44;10;;;6;;
15506;SDS011;7855;52.210;5.982;2022-09-04T08:51:49;14;;;7;;
15506;SDS011;7855;52.210;5.982;2022-09-04T08:54:00;13;;;7;;
15506;SDS011;7855;52.210;5.982;2022-09-04T08:56:08;15;;;7;;
15506;SDS011;7855;52.210;5.982;2022-09-04T08:58:28;18;;;6;;
15506;SDS011;7855;52.210;5.982;2022-09-04T09:00:37;11;;;6;;
15506;SDS011;7855;52.210;5.982;2022-09-04T09:05:08;11;;;7;;
15506;SDS011;7855;52.210;5.982;2022-09-04T09:07:31;10;;;6;;
15506;SDS011;7855;52.210;5.982;2022-09-04T09:09:40;13;;;6;;
15506;SDS011;7855;52.210;5.982;2022-09-04T09:11:51;10;;;7;;
15506;SDS011;7855;52.210;5.982;2022-09-04T09:14:06;9;;;6;;
15506;SDS011;7855;52.210;5.982;2022-09-04T09:16:18;10;;;5;;
15506;SDS011;7855;52.210;5.982;2022-09-04T09:18:34;9;;;5;;
15506;SDS011;7855;52.210;5.982;2022-09-04T09:20:45;14;;;5;;
15506;SDS011;7855;52.210;5.982;2022-09-04T09:23:15;10;;;5;;
15506;SDS011;7855;52.210;5.982;2022-09-04T09:25:14;31;;;7;;
15506;SDS011;7855;52.210;5.982;2022-09-04T09:27:35;92;;;10;;
15506;SDS011;7855;52.210;5.982;2022-09-04T09:29:48;12;;;5;;
15506;SDS011;7855;52.210;5.982;2022-09-04T09:32:20;11;;;6;;
15506;SDS011;7855;52.210;5.982;2022-09-04T09:34:17;9;;;6;;
15506;SDS011;7855;52.210;5.982;2022-09-04T09:36:29;11;;;5;;
15506;SDS011;7855;52.210;5.982;2022-09-04T09:38:51;11;;;6;;
15506;SDS011;7855;52.210;5.982;2022-09-04T09:41:00;11;;;4;;
15506;SDS011;7855;52.210;5.982;2022-09-04T09:43:14;9;;;5;;
15506;SDS011;7855;52.210;5.982;2022-09-04T09:45:43;8;;;5;;
15506;SDS011;7855;52.210;5.982;2022-09-04T09:47:53;14;;;4;;
15506;SDS011;7855;52.210;5.982;2022-09-04T09:49:57;12;;;4;;
15506;SDS011;7855;52.210;5.982;2022-09-04T09:52:08;13;;;5;;
15506;SDS011;7855;52.210;5.982;2022-09-04T09:54:30;7;;;4;;
15506;SDS011;7855;52.210;5.982;2022-09-04T09:56:40;7;;;4;;
15506;SDS011;7855;52.210;5.982;2022-09-04T09:59:12;14;;;4;;
15506;SDS011;7855;52.210;5.982;2022-09-04T10:01:07;14;;;4;;
15506;SDS011;7855;52.210;5.982;2022-09-04T10:04:18;12;;;4;;
15506;SDS011;7855;52.210;5.982;2022-09-04T10:05:38;8;;;4;;
15506;SDS011;7855;52.210;5.982;2022-09-04T10:07:54;23;;;8;;
15506;SDS011;7855;52.210;5.982;2022-09-04T10:10:16;7;;;4;;
15506;SDS011;7855;52.210;5.982;2022-09-04T10:12:35;12;;;3;;
15506;SDS011;7855;52.210;5.982;2022-09-04T10:14:39;12;;;4;;
15506;SDS011;7855;52.210;5.982;2022-09-04T10:19:11;20;;;9;;
15506;SDS011;7855;52.210;5.982;2022-09-04T10:21:17;23;;;4;;
15506;SDS011;7855;52.210;5.982;2022-09-04T10:23:40;8;;;4;;
15506;SDS011;7855;52.210;5.982;2022-09-04T10:25:48;10;;;4;;
15506;SDS011;7855;52.210;5.982;2022-09-04T10:28:03;8;;;3;;
15506;SDS011;7855;52.210;5.982;2022-09-04T10:30:12;9;;;4;;
15506;SDS011;7855;52.210;5.982;2022-09-04T10:32:34;7;;;3;;
15506;SDS011;7855;52.210;5.982;2022-09-04T10:34:46;8;;;3;;
15506;SDS011;7855;52.210;5.982;2022-09-04T10:36:59;7;;;3;;
15506;SDS011;7855;52.210;5.982;2022-09-04T10:39:16;7;;;3;;
15506;SDS011;7855;52.210;5.982;2022-09-04T10:41:30;6;;;3;;
15506;SDS011;7855;52.210;5.982;2022-09-04T10:43:52;6;;;3;;
15506;SDS011;7855;52.210;5.982;2022-09-04T10:45:56;8;;;4;;
15506;SDS011;7855;52.210;5.982;2022-09-04T10:48:14;8;;;3;;
15506;SDS011;7855;52.210;5.982;2022-09-04T10:50:25;9;;;3;;
15506;SDS011;7855;52.210;5.982;2022-09-04T10:52:40;7;;;3;;
15506;SDS011;7855;52.210;5.982;2022-09-04T10:54:56;7;;;3;;
15506;SDS011;7855;52.210;5.982;2022-09-04T10:57:07;6;;;3;;
15506;SDS011;7855;52.210;5.982;2022-09-04T10:59:25;12;;;3;;
15506;SDS011;7855;52.210;5.982;2022-09-04T11:01:48;6;;;3;;
15506;SDS011;7855;52.210;5.982;2022-09-04T11:03:52;7;;;3;;
15506;SDS011;7855;52.210;5.982;2022-09-04T11:06:17;6;;;2;;
15506;SDS011;7855;52.210;5.982;2022-09-04T11:08:21;7;;;3;;
15506;SDS011;7855;52.210;5.982;2022-09-04T11:10:35;8;;;3;;
15506;SDS011;7855;52.210;5.982;2022-09-04T11:13:06;7;;;3;;
15506;SDS011;7855;52.210;5.982;2022-09-04T11:15:05;10;;;2;;
15506;SDS011;7855;52.210;5.982;2022-09-04T11:17:20;6;;;2;;
15506;SDS011;7855;52.210;5.982;2022-09-04T11:19:35;7;;;3;;
15506;SDS011;7855;52.210;5.982;2022-09-04T11:21:50;6;;;2;;
15506;SDS011;7855;52.210;5.982;2022-09-04T11:24:05;9;;;3;;
15506;SDS011;7855;52.210;5.982;2022-09-04T11:26:34;6;;;2;;
15506;SDS011;7855;52.210;5.982;2022-09-04T11:28:36;13;;;3;;
15506;SDS011;7855;52.210;5.982;2022-09-04T11:30:46;6;;;2;;
15506;SDS011;7855;52.210;5.982;2022-09-04T11:32:59;10;;;3;;
15506;SDS011;7855;52.210;5.982;2022-09-04T11:37:29;6;;;2;;
15506;SDS011;7855;52.210;5.982;2022-09-04T11:39:44;10;;;2;;
15506;SDS011;7855;52.210;5.982;2022-09-04T11:42:14;8;;;2;;
15506;SDS011;7855;52.210;5.982;2022-09-04T11:44:19;7;;;2;;
15506;SDS011;7855;52.210;5.982;2022-09-04T11:46:25;6;;;2;;
15506;SDS011;7855;52.210;5.982;2022-09-04T11:48:39;6;;;2;;
15506;SDS011;7855;52.210;5.982;2022-09-04T11:50:57;5;;;1;;
15506;SDS011;7855;52.210;5.982;2022-09-04T11:53:11;6;;;2;;
15506;SDS011;7855;52.210;5.982;2022-09-04T11:55:23;8;;;2;;
15506;SDS011;7855;52.210;5.982;2022-09-04T11:57:36;6;;;2;;
15506;SDS011;7855;52.210;5.982;2022-09-04T11:59:53;5;;;2;;
15506;SDS011;7855;52.210;5.982;2022-09-04T12:04:23;5;;;1;;
15506;SDS011;7855;52.210;5.982;2022-09-04T12:06:35;17;;;2;;
15506;SDS011;7855;52.210;5.982;2022-09-04T12:08:59;6;;;2;;
15506;SDS011;7855;52.210;5.982;2022-09-04T12:13:18;15;;;2;;
15506;SDS011;7855;52.210;5.982;2022-09-04T12:15:37;11;;;2;;
15506;SDS011;7855;52.210;5.982;2022-09-04T12:17:50;22;;;2;;
15506;SDS011;7855;52.210;5.982;2022-09-04T12:20:07;10;;;2;;
15506;SDS011;7855;52.210;5.982;2022-09-04T12:22:18;5;;;1;;
15506;SDS011;7855;52.210;5.982;2022-09-04T12:24:32;9;;;2;;
15506;SDS011;7855;52.210;5.982;2022-09-04T12:27:01;6;;;1;;
15506;SDS011;7855;52.210;5.982;2022-09-04T12:29:07;6;;;2;;
15506;SDS011;7855;52.210;5.982;2022-09-04T12:31:18;5;;;1;;
15506;SDS011;7855;52.210;5.982;2022-09-04T12:33:30;5;;;2;;
15506;SDS011;7855;52.210;5.982;2022-09-04T12:35:51;6;;;1;;
15506;SDS011;7855;52.210;5.982;2022-09-04T12:38:01;7;;;2;;
15506;SDS011;7855;52.210;5.982;2022-09-04T12:40:18;5;;;2;;
15506;SDS011;7855;52.210;5.982;2022-09-04T12:42:24;5;;;1;;
15506;SDS011;7855;52.210;5.982;2022-09-04T12:44:41;5;;;1;;
15506;SDS011;7855;52.210;5.982;2022-09-04T12:46:56;13;;;1;;
15506;SDS011;7855;52.210;5.982;2022-09-04T12:49:15;5;;;1;;
15506;SDS011;7855;52.210;5.982;2022-09-04T12:51:21;5;;;1;;
15506;SDS011;7855;52.210;5.982;2022-09-04T12:53:38;8;;;2;;
15506;SDS011;7855;52.210;5.982;2022-09-04T12:55:52;9;;;1;;
15506;SDS011;7855;52.210;5.982;2022-09-04T12:58:07;4;;;1;;
15506;SDS011;7855;52.210;5.982;2022-09-04T13:00:18;6;;;1;;
15506;SDS011;7855;52.210;5.982;2022-09-04T13:02:35;8;;;1;;
15506;SDS011;7855;52.210;5.982;2022-09-04T13:04:50;5;;;1;;
15506;SDS011;7855;52.210;5.982;2022-09-04T13:07:06;5;;;1;;
15506;SDS011;7855;52.210;5.982;2022-09-04T13:09:17;6;;;2;;
15506;SDS011;7855;52.210;5.982;2022-09-04T13:11:35;7;;;1;;
15506;SDS011;7855;52.210;5.982;2022-09-04T13:13:47;4;;;1;;
15506;SDS011;7855;52.210;5.982;2022-09-04T13:16:01;6;;;1;;
15506;SDS011;7855;52.210;5.982;2022-09-04T13:18:17;4;;;1;;
15506;SDS011;7855;52.210;5.982;2022-09-04T13:20:30;7;;;1;;
15506;SDS011;7855;52.210;5.982;2022-09-04T13:22:45;6;;;1;;
15506;SDS011;7855;52.210;5.982;2022-09-04T13:25:00;4;;;1;;
15506;SDS011;7855;52.210;5.982;2022-09-04T13:27:14;5;;;1;;
15506;SDS011;7855;52.210;5.982;2022-09-04T13:29:29;5;;;2;;
15506;SDS011;7855;52.210;5.982;2022-09-04T13:31:45;4;;;1;;
15506;SDS011;7855;52.210;5.982;2022-09-04T13:33:56;4;;;1;;
15506;SDS011;7855;52.210;5.982;2022-09-04T13:36:13;4;;;1;;
15506;SDS011;7855;52.210;5.982;2022-09-04T13:38:29;4;;;1;;
15506;SDS011;7855;52.210;5.982;2022-09-04T13:40:44;5;;;1;;
15506;SDS011;7855;52.210;5.982;2022-09-04T13:42:58;4;;;1;;
15506;SDS011;7855;52.210;5.982;2022-09-04T13:45:09;6;;;2;;
15506;SDS011;7855;52.210;5.982;2022-09-04T13:47:22;4;;;1;;
15506;SDS011;7855;52.210;5.982;2022-09-04T13:49:38;12;;;2;;
15506;SDS011;7855;52.210;5.982;2022-09-04T13:51:51;9;;;1;;
15506;SDS011;7855;52.210;5.982;2022-09-04T13:54:07;4;;;1;;
15506;SDS011;7855;52.210;5.982;2022-09-04T13:56:21;6;;;1;;
15506;SDS011;7855;52.210;5.982;2022-09-04T13:58:35;6;;;1;;
15506;SDS011;7855;52.210;5.982;2022-09-04T14:00:49;9;;;2;;
15506;SDS011;7855;52.210;5.982;2022-09-04T14:03:04;12;;;1;;
15506;SDS011;7855;52.210;5.982;2022-09-04T14:05:17;4;;;1;;
15506;SDS011;7855;52.210;5.982;2022-09-04T14:07:33;9;;;2;;
15506;SDS011;7855;52.210;5.982;2022-09-04T14:09:46;5;;;2;;
15506;SDS011;7855;52.210;5.982;2022-09-04T14:12:05;10;;;1;;
15506;SDS011;7855;52.210;5.982;2022-09-04T14:14:19;4;;;1;;
15506;SDS011;7855;52.210;5.982;2022-09-04T14:16:29;8;;;2;;
15506;SDS011;7855;52.210;5.982;2022-09-04T14:18:48;4;;;1;;
15506;SDS011;7855;52.210;5.982;2022-09-04T14:20:59;4;;;1;;
15506;SDS011;7855;52.210;5.982;2022-09-04T14:23:14;10;;;2;;
15506;SDS011;7855;52.210;5.982;2022-09-04T14:25:28;4;;;1;;
15506;SDS011;7855;52.210;5.982;2022-09-04T14:27:43;4;;;3;;
15506;SDS011;7855;52.210;5.982;2022-09-04T14:29:59;9;;;3;;
15506;SDS011;7855;52.210;5.982;2022-09-04T14:32:13;6;;;1;;
15506;SDS011;7855;52.210;5.982;2022-09-04T14:34:27;4;;;1;;
15506;SDS011;7855;52.210;5.982;2022-09-04T14:36:41;4;;;1;;
15506;SDS011;7855;52.210;5.982;2022-09-04T14:38:57;4;;;1;;
15506;SDS011;7855;52.210;5.982;2022-09-04T14:41:16;5;;;1;;
15506;SDS011;7855;52.210;5.982;2022-09-04T14:43:24;4;;;1;;
15506;SDS011;7855;52.210;5.982;2022-09-04T14:45:51;3;;;1;;
15506;SDS011;7855;52.210;5.982;2022-09-04T14:47:52;4;;;1;;
15506;SDS011;7855;52.210;5.982;2022-09-04T14:50:06;5;;;1;;
15506;SDS011;7855;52.210;5.982;2022-09-04T14:52:21;6;;;1;;
15506;SDS011;7855;52.210;5.982;2022-09-04T14:54:35;7;;;2;;
15506;SDS011;7855;52.210;5.982;2022-09-04T14:56:49;4;;;1;;
15506;SDS011;7855;52.210;5.982;2022-09-04T14:59:06;4;;;1;;
15506;SDS011;7855;52.210;5.982;2022-09-04T15:01:18;3;;;1;;
15506;SDS011;7855;52.210;5.982;2022-09-04T15:03:32;4;;;1;;
15506;SDS011;7855;52.210;5.982;2022-09-04T15:05:47;5;;;1;;
15506;SDS011;7855;52.210;5.982;2022-09-04T15:08:04;6;;;2;;
15506;SDS011;7855;52.210;5.982;2022-09-04T15:10:18;4;;;2;;
15506;SDS011;7855;52.210;5.982;2022-09-04T15:12:31;4;;;1;;
15506;SDS011;7855;52.210;5.982;2022-09-04T15:14:45;5;;;2;;
15506;SDS011;7855;52.210;5.982;2022-09-04T15:16:59;5;;;2;;
15506;SDS011;7855;52.210;5.982;2022-09-04T15:19:20;4;;;2;;